createdAt,value
2022-08-25T00:01:29.081Z,1022.17
2022-08-25T00:11:38.435Z,1022.13
2022-08-25T00:21:45.550Z,1022.11
2022-08-25T00:31:52.737Z,1022.08
2022-08-25T00:41:59.630Z,1022.02
2022-08-25T00:52:06.413Z,1021.97
2022-08-25T01:02:13.675Z,1021.97
2022-08-25T01:14:59.693Z,1022.07
2022-08-25T01:25:05.568Z,1022.03
2022-08-25T01:36:31.837Z,1021.97
2022-08-25T01:49:17.031Z,1022.00
2022-08-25T01:59:24.360Z,1021.94
2022-08-25T02:10:51.002Z,1021.91
2022-08-25T02:22:17.116Z,1021.79
2022-08-25T02:32:23.164Z,1021.68
2022-08-25T02:42:30.178Z,1021.70
2022-08-25T02:52:37.174Z,1021.63
2022-08-25T03:02:44.148Z,1021.61
2022-08-25T03:12:51.489Z,1021.47
2022-08-25T03:22:59.823Z,1021.38
2022-08-25T03:33:07.391Z,1021.37
2022-08-25T03:43:15.091Z,1021.31
2022-08-25T03:53:22.664Z,1021.37
2022-08-25T04:04:50.162Z,1021.34
2022-08-25T04:16:18.085Z,1021.49
2022-08-25T04:26:27.355Z,1021.50
2022-08-25T04:45:51.672Z,1021.62
2022-08-25T04:56:00.634Z,1021.54
2022-08-25T05:06:14.045Z,1021.55
2022-08-25T05:26:59.071Z,1021.53
2022-08-25T05:45:02.853Z,1021.70
2022-08-25T06:28:16.813Z,1021.76
2022-08-25T07:24:48.144Z,1021.70
2022-08-25T10:12:38.123Z,1020.83
2022-08-25T10:40:06.298Z,1020.74
2022-08-25T11:26:00.653Z,1020.11
2022-08-25T12:21:10.213Z,1019.53
2022-08-25T12:31:16.486Z,1019.42
2022-08-25T12:41:24.690Z,1019.22
2022-08-25T12:51:31.083Z,1019.21
2022-08-25T13:01:43.557Z,1019.08
2022-08-25T13:11:52.440Z,1019.05
2022-08-25T13:22:01.422Z,1018.98
2022-08-25T13:32:12.673Z,1018.88
2022-08-25T13:42:23.975Z,1018.77
2022-08-25T13:52:35.634Z,1018.89
2022-08-25T14:02:44.195Z,1018.76
2022-08-25T14:12:52.930Z,1018.68
2022-08-25T14:27:00.809Z,1018.46
2022-08-25T14:37:05.309Z,1018.48
2022-08-25T14:53:49.760Z,1018.19
2022-08-25T15:05:16.640Z,1018.11
2022-08-25T15:15:21.843Z,1018.10
2022-08-25T15:25:30.674Z,1017.98
2022-08-25T15:35:39.382Z,1017.91
2022-08-25T15:47:06.710Z,1017.82
2022-08-25T15:57:24.259Z,1017.69
2022-08-25T16:10:11.471Z,1017.59
2022-08-25T16:21:47.010Z,1017.44
2022-08-25T16:33:11.528Z,1017.34
2022-08-25T16:47:25.255Z,1017.18
2022-08-25T16:57:32.728Z,1017.26
2022-08-25T17:09:00.309Z,1017.26
2022-08-25T17:19:06.824Z,1017.28
2022-08-25T17:30:33.375Z,1017.31
2022-08-25T17:41:59.506Z,1017.36
2022-08-25T17:52:05.792Z,1017.39
2022-08-25T18:02:12.899Z,1017.37
2022-08-25T18:13:39.795Z,1017.46
2022-08-25T18:23:45.809Z,1017.49
2022-08-25T18:33:56.854Z,1017.59
2022-08-25T18:44:06.542Z,1017.59
2022-08-25T18:56:53.211Z,1017.70
2022-08-25T19:06:59.601Z,1017.75
2022-08-25T19:17:07.309Z,1017.78
2022-08-25T19:27:15.121Z,1017.86
2022-08-25T19:37:22.976Z,1017.86
2022-08-25T19:48:50.545Z,1017.84
2022-08-25T20:05:35.525Z,1017.81
2022-08-25T20:15:41.402Z,1017.75
2022-08-25T20:28:27.597Z,1017.64
2022-08-25T20:39:53.704Z,1017.71
2022-08-25T23:38:01.063Z,1016.76
